sensor_id;sensor_type;location;lat;lon;timestamp;pressure;altitude;pressure_sealevel;temperature;humidity
62946;BME280;52164;52.212;-1.010;2022-12-07T00:01:44;101496.89;;;1.53;82.25
62946;BME280;52164;52.212;-1.010;2022-12-07T00:04:12;101496.73;;;1.54;82.61
62946;BME280;52164;52.212;-1.010;2022-12-07T00:06:42;101497.75;;;1.53;82.22
62946;BME280;52164;52.212;-1.010;2022-12-07T00:09:11;101494.95;;;1.53;82.36
62946;BME280;52164;52.212;-1.010;2022-12-07T00:11:37;101493.88;;;1.53;82.37
62946;BME280;52164;52.212;-1.010;2022-12-07T00:14:05;101492.76;;;1.52;82.20
62946;BME280;52164;52.212;-1.010;2022-12-07T00:16:32;101490.75;;;1.51;82.03
62946;BME280;52164;52.212;-1.010;2022-12-07T00:18:58;101490.29;;;1.48;82.28
62946;BME280;52164;52.212;-1.010;2022-12-07T00:21:27;101487.86;;;1.46;82.22
62946;BME280;52164;52.212;-1.010;2022-12-07T00:23:54;101490.44;;;1.45;82.25
62946;BME280;52164;52.212;-1.010;2022-12-07T00:26:24;101494.12;;;1.44;82.35
62946;BME280;52164;52.212;-1.010;2022-12-07T00:28:52;101493.27;;;1.45;82.25
62946;BME280;52164;52.212;-1.010;2022-12-07T00:31:20;101493.97;;;1.45;82.40
62946;BME280;52164;52.212;-1.010;2022-12-07T00:33:46;101487.35;;;1.46;82.26
62946;BME280;52164;52.212;-1.010;2022-12-07T00:36:14;101487.43;;;1.48;82.14
62946;BME280;52164;52.212;-1.010;2022-12-07T00:38:41;101488.34;;;1.48;82.30
62946;BME280;52164;52.212;-1.010;2022-12-07T00:41:12;101486.77;;;1.49;82.57
62946;BME280;52164;52.212;-1.010;2022-12-07T00:43:39;101488.50;;;1.48;82.27
62946;BME280;52164;52.212;-1.010;2022-12-07T00:46:04;101486.66;;;1.47;82.39
62946;BME280;52164;52.212;-1.010;2022-12-07T00:48:30;101485.11;;;1.44;82.40
62946;BME280;52164;52.212;-1.010;2022-12-07T00:50:55;101489.07;;;1.42;82.37
62946;BME280;52164;52.212;-1.010;2022-12-07T00:53:22;101481.60;;;1.40;82.33
62946;BME280;52164;52.212;-1.010;2022-12-07T00:55:47;101481.33;;;1.39;82.41
62946;BME280;52164;52.212;-1.010;2022-12-07T00:58:13;101482.02;;;1.35;82.24
62946;BME280;52164;52.212;-1.010;2022-12-07T01:00:41;101484.35;;;1.32;82.21
62946;BME280;52164;52.212;-1.010;2022-12-07T01:03:08;101480.14;;;1.30;82.45
62946;BME280;52164;52.212;-1.010;2022-12-07T01:05:34;101480.32;;;1.26;82.49
62946;BME280;52164;52.212;-1.010;2022-12-07T01:08:03;101476.87;;;1.24;82.30
62946;BME280;52164;52.212;-1.010;2022-12-07T01:10:29;101472.42;;;1.23;82.57
62946;BME280;52164;52.212;-1.010;2022-12-07T01:12:56;101474.20;;;1.23;82.66
62946;BME280;52164;52.212;-1.010;2022-12-07T01:15:21;101474.30;;;1.26;82.63
62946;BME280;52164;52.212;-1.010;2022-12-07T01:17:47;101477.59;;;1.28;82.63
62946;BME280;52164;52.212;-1.010;2022-12-07T01:20:13;101484.38;;;1.30;82.58
62946;BME280;52164;52.212;-1.010;2022-12-07T01:22:39;101477.94;;;1.31;82.71
62946;BME280;52164;52.212;-1.010;2022-12-07T01:25:06;101480.06;;;1.31;82.41
62946;BME280;52164;52.212;-1.010;2022-12-07T01:27:32;101476.13;;;1.30;82.45
62946;BME280;52164;52.212;-1.010;2022-12-07T01:29:58;101476.04;;;1.28;82.45
62946;BME280;52164;52.212;-1.010;2022-12-07T01:32:23;101475.84;;;1.25;82.35
62946;BME280;52164;52.212;-1.010;2022-12-07T01:34:49;101476.13;;;1.20;82.15
62946;BME280;52164;52.212;-1.010;2022-12-07T01:37:14;101478.29;;;1.14;82.18
62946;BME280;52164;52.212;-1.010;2022-12-07T01:39:40;101479.05;;;1.09;82.26
62946;BME280;52164;52.212;-1.010;2022-12-07T01:42:09;101477.64;;;1.06;82.52
62946;BME280;52164;52.212;-1.010;2022-12-07T01:45:25;101474.95;;;1.05;82.44
62946;BME280;52164;52.212;-1.010;2022-12-07T01:47:41;101476.83;;;1.03;82.79
62946;BME280;52164;52.212;-1.010;2022-12-07T01:50:08;101477.70;;;1.03;82.73
62946;BME280;52164;52.212;-1.010;2022-12-07T01:52:35;101477.23;;;1.04;82.79
62946;BME280;52164;52.212;-1.010;2022-12-07T01:55:04;101476.30;;;1.07;82.67
62946;BME280;52164;52.212;-1.010;2022-12-07T01:57:33;101473.80;;;1.10;83.06
62946;BME280;52164;52.212;-1.010;2022-12-07T02:00:00;101473.20;;;1.11;82.97
62946;BME280;52164;52.212;-1.010;2022-12-07T02:02:28;101472.95;;;1.10;82.78
62946;BME280;52164;52.212;-1.010;2022-12-07T02:04:57;101472.04;;;1.09;82.53
62946;BME280;52164;52.212;-1.010;2022-12-07T02:07:24;101472.64;;;1.08;82.61
62946;BME280;52164;52.212;-1.010;2022-12-07T02:09:52;101472.11;;;1.08;82.75
62946;BME280;52164;52.212;-1.010;2022-12-07T02:12:18;101470.14;;;1.07;82.49
62946;BME280;52164;52.212;-1.010;2022-12-07T02:14:44;101466.15;;;1.04;82.61
62946;BME280;52164;52.212;-1.010;2022-12-07T02:17:25;101468.27;;;1.01;82.55
62946;BME280;52164;52.212;-1.010;2022-12-07T02:20:00;101465.07;;;0.98;82.85
62946;BME280;52164;52.212;-1.010;2022-12-07T02:22:54;101461.24;;;0.95;82.78
62946;BME280;52164;52.212;-1.010;2022-12-07T02:28:29;101461.25;;;0.95;83.08
62946;BME280;52164;52.212;-1.010;2022-12-07T02:31:01;101465.38;;;0.97;82.95
62946;BME280;52164;52.212;-1.010;2022-12-07T02:33:37;101464.83;;;1.00;82.80
62946;BME280;52164;52.212;-1.010;2022-12-07T02:36:27;101456.52;;;1.02;83.07
62946;BME280;52164;52.212;-1.010;2022-12-07T02:39:07;101450.95;;;1.03;82.90
62946;BME280;52164;52.212;-1.010;2022-12-07T02:41:42;101452.84;;;1.02;82.56
62946;BME280;52164;52.212;-1.010;2022-12-07T02:44:11;101450.64;;;0.97;82.41
62946;BME280;52164;52.212;-1.010;2022-12-07T02:46:42;101445.83;;;0.93;82.60
62946;BME280;52164;52.212;-1.010;2022-12-07T02:49:09;101447.90;;;0.89;82.07
62946;BME280;52164;52.212;-1.010;2022-12-07T02:51:39;101448.57;;;0.84;82.53
62946;BME280;52164;52.212;-1.010;2022-12-07T02:54:17;101449.58;;;0.80;82.52
62946;BME280;52164;52.212;-1.010;2022-12-07T02:56:46;101444.11;;;0.77;82.94
62946;BME280;52164;52.212;-1.010;2022-12-07T02:59:57;101449.88;;;0.73;82.67
62946;BME280;52164;52.212;-1.010;2022-12-07T03:08:28;101441.36;;;0.65;82.79
62946;BME280;52164;52.212;-1.010;2022-12-07T03:11:03;101438.84;;;0.64;82.76
62946;BME280;52164;52.212;-1.010;2022-12-07T03:13:54;101439.70;;;0.64;83.20
62946;BME280;52164;52.212;-1.010;2022-12-07T03:16:27;101435.66;;;0.67;83.05
62946;BME280;52164;52.212;-1.010;2022-12-07T03:18:58;101439.55;;;0.71;83.28
62946;BME280;52164;52.212;-1.010;2022-12-07T03:21:27;101435.98;;;0.73;83.08
62946;BME280;52164;52.212;-1.010;2022-12-07T03:23:56;101429.05;;;0.75;82.95
62946;BME280;52164;52.212;-1.010;2022-12-07T03:26:30;101428.26;;;0.76;82.90
62946;BME280;52164;52.212;-1.010;2022-12-07T03:29:00;101426.33;;;0.76;83.20
62946;BME280;52164;52.212;-1.010;2022-12-07T03:31:31;101427.94;;;0.77;82.98
62946;BME280;52164;52.212;-1.010;2022-12-07T03:34:21;101419.59;;;0.75;83.05
62946;BME280;52164;52.212;-1.010;2022-12-07T03:39:29;101419.64;;;0.69;83.10
62946;BME280;52164;52.212;-1.010;2022-12-07T03:41:58;101419.64;;;0.69;83.35
62946;BME280;52164;52.212;-1.010;2022-12-07T03:44:25;101420.57;;;0.70;82.90
62946;BME280;52164;52.212;-1.010;2022-12-07T03:47:04;101421.98;;;0.70;83.20
62946;BME280;52164;52.212;-1.010;2022-12-07T03:49:55;101429.50;;;0.73;82.93
62946;BME280;52164;52.212;-1.010;2022-12-07T03:55:25;101424.85;;;0.78;83.20
62946;BME280;52164;52.212;-1.010;2022-12-07T03:57:57;101423.09;;;0.79;83.02
62946;BME280;52164;52.212;-1.010;2022-12-07T04:00:23;101420.54;;;0.80;83.15
62946;BME280;52164;52.212;-1.010;2022-12-07T04:02:51;101418.78;;;0.80;83.17
62946;BME280;52164;52.212;-1.010;2022-12-07T04:05:18;101417.36;;;0.79;82.90
62946;BME280;52164;52.212;-1.010;2022-12-07T04:07:44;101421.30;;;0.78;83.25
62946;BME280;52164;52.212;-1.010;2022-12-07T04:10:09;101414.44;;;0.78;83.31
62946;BME280;52164;52.212;-1.010;2022-12-07T04:12:36;101418.83;;;0.77;83.01
62946;BME280;52164;52.212;-1.010;2022-12-07T04:15:03;101417.55;;;0.76;83.10
62946;BME280;52164;52.212;-1.010;2022-12-07T04:17:28;101415.40;;;0.76;83.07
62946;BME280;52164;52.212;-1.010;2022-12-07T04:19:54;101419.61;;;0.76;82.98
62946;BME280;52164;52.212;-1.010;2022-12-07T04:22:19;101421.45;;;0.74;82.96
62946;BME280;52164;52.212;-1.010;2022-12-07T04:24:45;101416.52;;;0.74;82.87
62946;BME280;52164;52.212;-1.010;2022-12-07T04:27:10;101417.92;;;0.73;82.91
62946;BME280;52164;52.212;-1.010;2022-12-07T04:29:36;101419.77;;;0.72;83.24
62946;BME280;52164;52.212;-1.010;2022-12-07T04:32:01;101417.92;;;0.74;83.11
62946;BME280;52164;52.212;-1.010;2022-12-07T04:34:27;101411.88;;;0.75;83.13
62946;BME280;52164;52.212;-1.010;2022-12-07T04:36:52;101414.45;;;0.78;83.30
62946;BME280;52164;52.212;-1.010;2022-12-07T04:39:22;101419.27;;;0.79;82.94
62946;BME280;52164;52.212;-1.010;2022-12-07T04:41:48;101416.92;;;0.78;82.83
62946;BME280;52164;52.212;-1.010;2022-12-07T04:44:15;101415.05;;;0.76;82.61
62946;BME280;52164;52.212;-1.010;2022-12-07T04:46:41;101410.63;;;0.72;82.52
62946;BME280;52164;52.212;-1.010;2022-12-07T04:49:06;101410.58;;;0.68;82.53
62946;BME280;52164;52.212;-1.010;2022-12-07T04:51:32;101407.94;;;0.64;82.84
62946;BME280;52164;52.212;-1.010;2022-12-07T04:53:58;101406.90;;;0.61;82.64
62946;BME280;52164;52.212;-1.010;2022-12-07T04:56:26;101404.64;;;0.59;82.77
62946;BME280;52164;52.212;-1.010;2022-12-07T04:58:52;101400.39;;;0.55;82.71
62946;BME280;52164;52.212;-1.010;2022-12-07T05:01:18;101405.37;;;0.53;82.72
62946;BME280;52164;52.212;-1.010;2022-12-07T05:03:44;101407.07;;;0.52;82.54
62946;BME280;52164;52.212;-1.010;2022-12-07T05:06:10;101407.45;;;0.49;82.69
62946;BME280;52164;52.212;-1.010;2022-12-07T05:08:36;101410.58;;;0.48;82.70
62946;BME280;52164;52.212;-1.010;2022-12-07T05:11:03;101411.11;;;0.48;82.92
62946;BME280;52164;52.212;-1.010;2022-12-07T05:13:28;101405.33;;;0.48;82.72
62946;BME280;52164;52.212;-1.010;2022-12-07T05:15:54;101404.44;;;0.48;82.69
62946;BME280;52164;52.212;-1.010;2022-12-07T05:18:19;101404.95;;;0.48;82.91
62946;BME280;52164;52.212;-1.010;2022-12-07T05:20:45;101405.45;;;0.47;82.83
62946;BME280;52164;52.212;-1.010;2022-12-07T05:23:11;101401.59;;;0.45;82.57
62946;BME280;52164;52.212;-1.010;2022-12-07T05:25:37;101404.63;;;0.42;82.60
62946;BME280;52164;52.212;-1.010;2022-12-07T05:28:03;101398.74;;;0.38;82.41
62946;BME280;52164;52.212;-1.010;2022-12-07T05:30:28;101400.70;;;0.35;82.44
62946;BME280;52164;52.212;-1.010;2022-12-07T05:32:54;101394.05;;;0.32;82.60
62946;BME280;52164;52.212;-1.010;2022-12-07T05:35:20;101394.35;;;0.31;82.61
62946;BME280;52164;52.212;-1.010;2022-12-07T05:37:45;101395.51;;;0.30;82.75
62946;BME280;52164;52.212;-1.010;2022-12-07T05:40:13;101391.15;;;0.30;82.92
62946;BME280;52164;52.212;-1.010;2022-12-07T05:42:44;101392.15;;;0.33;82.90
62946;BME280;52164;52.212;-1.010;2022-12-07T05:45:10;101398.58;;;0.34;82.76
62946;BME280;52164;52.212;-1.010;2022-12-07T05:47:36;101396.05;;;0.36;82.73
62946;BME280;52164;52.212;-1.010;2022-12-07T05:50:02;101397.70;;;0.38;82.86
62946;BME280;52164;52.212;-1.010;2022-12-07T05:52:28;101399.05;;;0.37;82.49
62946;BME280;52164;52.212;-1.010;2022-12-07T05:54:54;101393.16;;;0.35;82.56
62946;BME280;52164;52.212;-1.010;2022-12-07T05:57:22;101392.80;;;0.34;82.71
62946;BME280;52164;52.212;-1.010;2022-12-07T05:59:48;101391.70;;;0.33;82.82
62946;BME280;52164;52.212;-1.010;2022-12-07T06:02:15;101390.23;;;0.32;82.67
62946;BME280;52164;52.212;-1.010;2022-12-07T06:04:44;101379.44;;;0.31;82.63
62946;BME280;52164;52.212;-1.010;2022-12-07T06:07:12;101377.55;;;0.29;82.69
62946;BME280;52164;52.212;-1.010;2022-12-07T06:09:38;101378.96;;;0.26;82.51
62946;BME280;52164;52.212;-1.010;2022-12-07T06:12:04;101378.23;;;0.22;82.50
62946;BME280;52164;52.212;-1.010;2022-12-07T06:14:50;101376.27;;;0.18;82.60
62946;BME280;52164;52.212;-1.010;2022-12-07T06:17:16;101378.10;;;0.16;82.76
62946;BME280;52164;52.212;-1.010;2022-12-07T06:19:42;101371.97;;;0.16;82.74
62946;BME280;52164;52.212;-1.010;2022-12-07T06:22:08;101370.24;;;0.17;82.74
62946;BME280;52164;52.212;-1.010;2022-12-07T06:24:35;101371.81;;;0.17;82.60
62946;BME280;52164;52.212;-1.010;2022-12-07T06:27:01;101371.11;;;0.17;82.78
62946;BME280;52164;52.212;-1.010;2022-12-07T06:29:26;101376.66;;;0.16;82.83
62946;BME280;52164;52.212;-1.010;2022-12-07T06:31:51;101381.20;;;0.15;82.77
62946;BME280;52164;52.212;-1.010;2022-12-07T06:34:20;101381.45;;;0.13;82.54
62946;BME280;52164;52.212;-1.010;2022-12-07T06:36:47;101381.06;;;0.13;82.70
62946;BME280;52164;52.212;-1.010;2022-12-07T06:39:18;101378.34;;;0.12;82.69
62946;BME280;52164;52.212;-1.010;2022-12-07T06:41:43;101380.80;;;0.11;82.86
62946;BME280;52164;52.212;-1.010;2022-12-07T06:44:10;101381.89;;;0.09;82.93
62946;BME280;52164;52.212;-1.010;2022-12-07T06:46:36;101379.69;;;0.07;82.79
62946;BME280;52164;52.212;-1.010;2022-12-07T06:49:02;101380.80;;;0.08;83.13
62946;BME280;52164;52.212;-1.010;2022-12-07T06:51:27;101385.09;;;0.10;82.96
62946;BME280;52164;52.212;-1.010;2022-12-07T06:53:53;101384.84;;;0.11;83.00
62946;BME280;52164;52.212;-1.010;2022-12-07T06:56:19;101384.79;;;0.14;82.99
62946;BME280;52164;52.212;-1.010;2022-12-07T06:58:44;101384.40;;;0.16;82.87
62946;BME280;52164;52.212;-1.010;2022-12-07T07:01:12;101385.25;;;0.19;82.87
62946;BME280;52164;52.212;-1.010;2022-12-07T07:03:38;101384.81;;;0.21;82.79
62946;BME280;52164;52.212;-1.010;2022-12-07T07:06:04;101381.67;;;0.21;82.53
62946;BME280;52164;52.212;-1.010;2022-12-07T07:08:29;101380.09;;;0.21;82.89
62946;BME280;52164;52.212;-1.010;2022-12-07T07:10:54;101381.36;;;0.22;82.71
62946;BME280;52164;52.212;-1.010;2022-12-07T07:13:20;101384.61;;;0.20;82.68
62946;BME280;52164;52.212;-1.010;2022-12-07T07:15:45;101387.77;;;0.20;82.51
62946;BME280;52164;52.212;-1.010;2022-12-07T07:18:11;101389.61;;;0.18;82.57
62946;BME280;52164;52.212;-1.010;2022-12-07T07:20:37;101390.52;;;0.15;82.53
62946;BME280;52164;52.212;-1.010;2022-12-07T07:23:02;101388.11;;;0.13;82.62
62946;BME280;52164;52.212;-1.010;2022-12-07T07:25:28;101385.13;;;0.10;82.52
62946;BME280;52164;52.212;-1.010;2022-12-07T07:27:53;101389.10;;;0.06;82.58
62946;BME280;52164;52.212;-1.010;2022-12-07T07:30:19;101388.17;;;0.02;82.46
62946;BME280;52164;52.212;-1.010;2022-12-07T07:32:45;101385.06;;;-0.00;82.59
62946;BME280;52164;52.212;-1.010;2022-12-07T07:35:10;101385.69;;;-0.02;82.53
62946;BME280;52164;52.212;-1.010;2022-12-07T07:37:35;101382.30;;;-0.03;82.72
62946;BME280;52164;52.212;-1.010;2022-12-07T07:40:01;101384.77;;;-0.02;82.66
62946;BME280;52164;52.212;-1.010;2022-12-07T07:42:26;101384.69;;;-0.03;82.73
62946;BME280;52164;52.212;-1.010;2022-12-07T07:44:53;101387.23;;;-0.02;82.61
62946;BME280;52164;52.212;-1.010;2022-12-07T07:47:19;101386.23;;;-0.04;82.54
62946;BME280;52164;52.212;-1.010;2022-12-07T07:49:45;101382.05;;;-0.04;82.80
62946;BME280;52164;52.212;-1.010;2022-12-07T07:52:10;101378.62;;;-0.03;82.73
62946;BME280;52164;52.212;-1.010;2022-12-07T07:54:35;101381.98;;;-0.02;82.53
62946;BME280;52164;52.212;-1.010;2022-12-07T07:57:01;101383.19;;;-0.03;82.68
62946;BME280;52164;52.212;-1.010;2022-12-07T07:59:29;101377.76;;;-0.02;82.64
62946;BME280;52164;52.212;-1.010;2022-12-07T08:01:55;101378.02;;;-0.03;82.65
62946;BME280;52164;52.212;-1.010;2022-12-07T08:04:20;101378.95;;;-0.06;82.43
62946;BME280;52164;52.212;-1.010;2022-12-07T08:06:46;101384.96;;;-0.08;82.68
62946;BME280;52164;52.212;-1.010;2022-12-07T08:09:12;101387.95;;;-0.11;82.52
62946;BME280;52164;52.212;-1.010;2022-12-07T08:11:37;101390.83;;;-0.13;82.45
62946;BME280;52164;52.212;-1.010;2022-12-07T08:14:03;101389.98;;;-0.16;82.49
62946;BME280;52164;52.212;-1.010;2022-12-07T08:16:28;101390.64;;;-0.16;82.46
62946;BME280;52164;52.212;-1.010;2022-12-07T08:18:54;101390.88;;;-0.15;82.87
62946;BME280;52164;52.212;-1.010;2022-12-07T08:21:19;101391.73;;;-0.12;82.78
62946;BME280;52164;52.212;-1.010;2022-12-07T08:23:45;101394.04;;;-0.09;82.65
62946;BME280;52164;52.212;-1.010;2022-12-07T08:26:14;101395.88;;;-0.04;82.85
62946;BME280;52164;52.212;-1.010;2022-12-07T08:28:40;101393.91;;;0.04;83.00
62946;BME280;52164;52.212;-1.010;2022-12-07T08:31:08;101391.30;;;0.11;82.96
62946;BME280;52164;52.212;-1.010;2022-12-07T08:33:35;101389.07;;;0.18;82.93
62946;BME280;52164;52.212;-1.010;2022-12-07T08:36:02;101393.06;;;0.24;82.53
62946;BME280;52164;52.212;-1.010;2022-12-07T08:38:28;101388.94;;;0.29;82.36
62946;BME280;52164;52.212;-1.010;2022-12-07T08:40:55;101389.91;;;0.33;82.32
62946;BME280;52164;52.212;-1.010;2022-12-07T08:43:21;101391.67;;;0.37;82.00
62946;BME280;52164;52.212;-1.010;2022-12-07T08:45:49;101387.85;;;0.38;81.58
62946;BME280;52164;52.212;-1.010;2022-12-07T08:48:17;101389.20;;;0.37;81.91
62946;BME280;52164;52.212;-1.010;2022-12-07T08:50:47;101387.95;;;0.36;81.69
62946;BME280;52164;52.212;-1.010;2022-12-07T08:53:13;101384.94;;;0.35;81.87
62946;BME280;52164;52.212;-1.010;2022-12-07T08:55:39;101382.30;;;0.35;81.71
62946;BME280;52164;52.212;-1.010;2022-12-07T08:58:05;101383.41;;;0.36;81.91
62946;BME280;52164;52.212;-1.010;2022-12-07T09:00:30;101382.98;;;0.38;81.95
62946;BME280;52164;52.212;-1.010;2022-12-07T09:02:56;101375.81;;;0.42;82.01
62946;BME280;52164;52.212;-1.010;2022-12-07T09:05:21;101374.84;;;0.47;81.79
62946;BME280;52164;52.212;-1.010;2022-12-07T09:07:51;101366.56;;;0.50;81.53
62946;BME280;52164;52.212;-1.010;2022-12-07T09:10:19;101367.65;;;0.53;81.67
62946;BME280;52164;52.212;-1.010;2022-12-07T09:12:45;101371.73;;;0.58;81.57
62946;BME280;52164;52.212;-1.010;2022-12-07T09:15:10;101370.98;;;0.63;81.85
62946;BME280;52164;52.212;-1.010;2022-12-07T09:17:35;101375.63;;;0.68;81.64
62946;BME280;52164;52.212;-1.010;2022-12-07T09:20:02;101379.86;;;0.71;81.53
62946;BME280;52164;52.212;-1.010;2022-12-07T09:22:29;101385.91;;;0.73;81.56
62946;BME280;52164;52.212;-1.010;2022-12-07T09:24:56;101378.23;;;0.74;81.47
62946;BME280;52164;52.212;-1.010;2022-12-07T09:27:21;101378.54;;;0.77;81.55
62946;BME280;52164;52.212;-1.010;2022-12-07T09:29:47;101373.30;;;0.80;81.40
62946;BME280;52164;52.212;-1.010;2022-12-07T09:32:12;101374.39;;;0.84;81.32
62946;BME280;52164;52.212;-1.010;2022-12-07T09:34:38;101376.13;;;0.87;81.33
62946;BME280;52164;52.212;-1.010;2022-12-07T09:37:06;101370.63;;;0.90;81.32
62946;BME280;52164;52.212;-1.010;2022-12-07T09:39:32;101368.14;;;0.93;81.07
62946;BME280;52164;52.212;-1.010;2022-12-07T09:41:58;101366.73;;;0.96;81.30
62946;BME280;52164;52.212;-1.010;2022-12-07T09:44:26;101369.31;;;1.01;81.01
62946;BME280;52164;52.212;-1.010;2022-12-07T09:46:52;101368.60;;;1.08;80.89
62946;BME280;52164;52.212;-1.010;2022-12-07T09:49:20;101371.48;;;1.16;81.00
62946;BME280;52164;52.212;-1.010;2022-12-07T09:51:47;101372.73;;;1.23;80.98
62946;BME280;52164;52.212;-1.010;2022-12-07T09:54:14;101369.78;;;1.31;80.70
62946;BME280;52164;52.212;-1.010;2022-12-07T09:56:41;101369.58;;;1.37;80.34
62946;BME280;52164;52.212;-1.010;2022-12-07T09:59:13;101371.23;;;1.42;80.69
62946;BME280;52164;52.212;-1.010;2022-12-07T10:01:41;101370.30;;;1.45;80.34
62946;BME280;52164;52.212;-1.010;2022-12-07T10:04:15;101372.67;;;1.47;80.35
62946;BME280;52164;52.212;-1.010;2022-12-07T10:06:42;101368.80;;;1.46;80.38
62946;BME280;52164;52.212;-1.010;2022-12-07T10:09:10;101367.00;;;1.46;79.99
62946;BME280;52164;52.212;-1.010;2022-12-07T10:12:11;101366.55;;;1.47;80.02
62946;BME280;52164;52.212;-1.010;2022-12-07T10:14:40;101363.01;;;1.53;80.28
62946;BME280;52164;52.212;-1.010;2022-12-07T10:17:30;101360.23;;;1.58;80.05
62946;BME280;52164;52.212;-1.010;2022-12-07T10:23:00;101363.02;;;1.75;80.31
62946;BME280;52164;52.212;-1.010;2022-12-07T10:25:32;101360.23;;;1.87;80.22
62946;BME280;52164;52.212;-1.010;2022-12-07T10:28:10;101356.27;;;1.96;80.31
62946;BME280;52164;52.212;-1.010;2022-12-07T10:30:56;101349.58;;;2.03;79.79
62946;BME280;52164;52.212;-1.010;2022-12-07T10:35:55;101345.55;;;2.11;79.38
62946;BME280;52164;52.212;-1.010;2022-12-07T10:38:20;101347.75;;;2.13;79.05
62946;BME280;52164;52.212;-1.010;2022-12-07T10:40:46;101347.13;;;2.19;79.14
62946;BME280;52164;52.212;-1.010;2022-12-07T10:46:04;101336.05;;;2.26;79.13
62946;BME280;52164;52.212;-1.010;2022-12-07T10:49:00;101334.41;;;2.37;79.06
62946;BME280;52164;52.212;-1.010;2022-12-07T10:51:27;101334.27;;;2.45;79.03
62946;BME280;52164;52.212;-1.010;2022-12-07T10:54:03;101330.21;;;2.49;78.94
62946;BME280;52164;52.212;-1.010;2022-12-07T10:56:44;101325.91;;;2.51;78.85
62946;BME280;52164;52.212;-1.010;2022-12-07T11:02:37;101317.61;;;2.54;78.31
62946;BME280;52164;52.212;-1.010;2022-12-07T11:05:06;101316.66;;;2.57;78.54
62946;BME280;52164;52.212;-1.010;2022-12-07T11:10:27;101316.61;;;2.59;78.05
62946;BME280;52164;52.212;-1.010;2022-12-07T11:18:50;101308.08;;;2.66;77.90
62946;BME280;52164;52.212;-1.010;2022-12-07T11:21:45;101304.48;;;2.72;78.17
62946;BME280;52164;52.212;-1.010;2022-12-07T11:24:17;101301.65;;;2.80;78.17
62946;BME280;52164;52.212;-1.010;2022-12-07T11:27:37;101300.23;;;2.84;77.91
62946;BME280;52164;52.212;-1.010;2022-12-07T11:30:23;101295.44;;;2.91;77.93
62946;BME280;52164;52.212;-1.010;2022-12-07T11:33:12;101291.43;;;2.96;77.85
62946;BME280;52164;52.212;-1.010;2022-12-07T11:35:49;101283.63;;;2.99;77.44
62946;BME280;52164;52.212;-1.010;2022-12-07T11:38:43;101281.36;;;3.00;77.38
62946;BME280;52164;52.212;-1.010;2022-12-07T11:41:09;101274.67;;;3.00;76.99
62946;BME280;52164;52.212;-1.010;2022-12-07T11:45:59;101272.64;;;3.03;77.19
62946;BME280;52164;52.212;-1.010;2022-12-07T11:51:44;101260.07;;;3.05;77.47
62946;BME280;52164;52.212;-1.010;2022-12-07T11:54:17;101257.02;;;3.08;77.35
62946;BME280;52164;52.212;-1.010;2022-12-07T11:56:45;101253.98;;;3.12;77.18
62946;BME280;52164;52.212;-1.010;2022-12-07T11:59:17;101252.51;;;3.14;76.92
62946;BME280;52164;52.212;-1.010;2022-12-07T12:01:56;101248.83;;;3.19;77.01
62946;BME280;52164;52.212;-1.010;2022-12-07T12:04:53;101245.34;;;3.28;76.73
62946;BME280;52164;52.212;-1.010;2022-12-07T12:07:23;101242.46;;;3.36;76.65
62946;BME280;52164;52.212;-1.010;2022-12-07T12:09:53;101233.05;;;3.43;76.56
62946;BME280;52164;52.212;-1.010;2022-12-07T12:12:42;101230.66;;;3.49;76.37
62946;BME280;52164;52.212;-1.010;2022-12-07T12:16:06;101223.52;;;3.52;76.08
62946;BME280;52164;52.212;-1.010;2022-12-07T12:18:39;101224.05;;;3.57;76.20
62946;BME280;52164;52.212;-1.010;2022-12-07T12:21:14;101219.39;;;3.59;76.21
62946;BME280;52164;52.212;-1.010;2022-12-07T12:23:48;101214.14;;;3.60;76.10
62946;BME280;52164;52.212;-1.010;2022-12-07T12:26:20;101210.22;;;3.60;76.21
62946;BME280;52164;52.212;-1.010;2022-12-07T12:28:50;101207.55;;;3.59;76.26
62946;BME280;52164;52.212;-1.010;2022-12-07T12:31:38;101208.39;;;3.58;76.14
62946;BME280;52164;52.212;-1.010;2022-12-07T12:34:33;101204.88;;;3.54;75.98
62946;BME280;52164;52.212;-1.010;2022-12-07T12:37:38;101205.33;;;3.51;76.03
62946;BME280;52164;52.212;-1.010;2022-12-07T12:40:37;101200.75;;;3.48;76.11
62946;BME280;52164;52.212;-1.010;2022-12-07T12:43:54;101196.69;;;3.43;75.88
62946;BME280;52164;52.212;-1.010;2022-12-07T12:48:55;101186.76;;;3.33;76.06
62946;BME280;52164;52.212;-1.010;2022-12-07T12:51:38;101180.46;;;3.33;75.93
62946;BME280;52164;52.212;-1.010;2022-12-07T12:54:12;101174.40;;;3.37;76.09
62946;BME280;52164;52.212;-1.010;2022-12-07T12:57:15;101173.52;;;3.42;76.21
62946;BME280;52164;52.212;-1.010;2022-12-07T12:59:30;101174.97;;;3.47;76.16
62946;BME280;52164;52.212;-1.010;2022-12-07T13:02:09;101167.70;;;3.50;76.04
62946;BME280;52164;52.212;-1.010;2022-12-07T13:04:58;101166.00;;;3.52;75.86
62946;BME280;52164;52.212;-1.010;2022-12-07T13:10:38;101168.70;;;3.53;75.62
62946;BME280;52164;52.212;-1.010;2022-12-07T13:18:36;101161.20;;;3.56;75.35
62946;BME280;52164;52.212;-1.010;2022-12-07T13:24:10;101146.74;;;3.61;75.14
62946;BME280;52164;52.212;-1.010;2022-12-07T13:26:41;101142.46;;;3.65;75.51
62946;BME280;52164;52.212;-1.010;2022-12-07T13:29:13;101134.55;;;3.65;75.44
62946;BME280;52164;52.212;-1.010;2022-12-07T13:31:46;101135.36;;;3.68;75.28
62946;BME280;52164;52.212;-1.010;2022-12-07T13:37:02;101128.02;;;3.70;74.98
62946;BME280;52164;52.212;-1.010;2022-12-07T13:39:33;101124.43;;;3.74;74.58
62946;BME280;52164;52.212;-1.010;2022-12-07T13:42:09;101121.91;;;3.77;74.74
62946;BME280;52164;52.212;-1.010;2022-12-07T13:44:40;101119.38;;;3.80;74.60
62946;BME280;52164;52.212;-1.010;2022-12-07T13:47:15;101108.08;;;3.85;74.69
62946;BME280;52164;52.212;-1.010;2022-12-07T13:49:48;101100.78;;;3.88;74.41
62946;BME280;52164;52.212;-1.010;2022-12-07T13:52:19;101098.83;;;3.93;74.50
62946;BME280;52164;52.212;-1.010;2022-12-07T13:57:14;101090.19;;;3.93;73.99
62946;BME280;52164;52.212;-1.010;2022-12-07T13:59:39;101087.78;;;3.95;74.06
62946;BME280;52164;52.212;-1.010;2022-12-07T14:02:26;101090.05;;;3.99;74.17
62946;BME280;52164;52.212;-1.010;2022-12-07T14:04:52;101087.63;;;4.05;74.29
62946;BME280;52164;52.212;-1.010;2022-12-07T14:07:33;101087.18;;;4.13;74.06